sensor_id;sensor_type;location;lat;lon;timestamp;temperature;humidity
8565;DHT22;4320;51.498;6.556;2023-03-23T00:02:30;13.70;99.90
8565;DHT22;4320;51.498;6.556;2023-03-23T00:04:58;13.70;99.90
8565;DHT22;4320;51.498;6.556;2023-03-23T00:07:25;13.60;99.90
8565;DHT22;4320;51.498;6.556;2023-03-23T00:09:53;13.70;99.90
8565;DHT22;4320;51.498;6.556;2023-03-23T00:12:24;13.70;99.90
8565;DHT22;4320;51.498;6.556;2023-03-23T00:15:10;13.60;99.90
8565;DHT22;4320;51.498;6.556;2023-03-23T00:17:39;13.60;99.90
8565;DHT22;4320;51.498;6.556;2023-03-23T00:20:06;13.60;99.90
8565;DHT22;4320;51.498;6.556;2023-03-23T00:22:32;13.60;99.90
8565;DHT22;4320;51.498;6.556;2023-03-23T00:25:05;13.60;99.90
8565;DHT22;4320;51.498;6.556;2023-03-23T00:27:31;13.60;99.90
8565;DHT22;4320;51.498;6.556;2023-03-23T00:29:57;13.60;99.90
8565;DHT22;4320;51.498;6.556;2023-03-23T00:32:24;13.60;99.90
8565;DHT22;4320;51.498;6.556;2023-03-23T00:34:57;13.60;99.90
8565;DHT22;4320;51.498;6.556;2023-03-23T00:37:24;13.60;99.90
8565;DHT22;4320;51.498;6.556;2023-03-23T00:39:50;13.60;99.90
8565;DHT22;4320;51.498;6.556;2023-03-23T00:42:17;13.60;99.90
8565;DHT22;4320;51.498;6.556;2023-03-23T00:44:43;13.60;99.90
8565;DHT22;4320;51.498;6.556;2023-03-23T00:47:10;13.60;99.90
8565;DHT22;4320;51.498;6.556;2023-03-23T00:49:36;13.60;99.90
8565;DHT22;4320;51.498;6.556;2023-03-23T00:52:04;13.60;99.90
8565;DHT22;4320;51.498;6.556;2023-03-23T00:54:30;13.60;99.90
8565;DHT22;4320;51.498;6.556;2023-03-23T00:56:56;13.60;99.90
8565;DHT22;4320;51.498;6.556;2023-03-23T00:59:22;13.60;99.90
8565;DHT22;4320;51.498;6.556;2023-03-23T01:01:48;13.60;99.90
8565;DHT22;4320;51.498;6.556;2023-03-23T01:04:15;13.60;99.90
8565;DHT22;4320;51.498;6.556;2023-03-23T01:06:42;13.60;99.90
8565;DHT22;4320;51.498;6.556;2023-03-23T01:09:13;13.70;99.90
8565;DHT22;4320;51.498;6.556;2023-03-23T01:11:41;13.60;99.90
8565;DHT22;4320;51.498;6.556;2023-03-23T01:14:08;13.70;99.90
8565;DHT22;4320;51.498;6.556;2023-03-23T01:16:33;13.60;99.90
8565;DHT22;4320;51.498;6.556;2023-03-23T01:18:59;13.60;99.90
8565;DHT22;4320;51.498;6.556;2023-03-23T01:21:25;13.60;99.90
8565;DHT22;4320;51.498;6.556;2023-03-23T01:23:51;13.60;99.90
8565;DHT22;4320;51.498;6.556;2023-03-23T01:26:28;13.60;99.90
8565;DHT22;4320;51.498;6.556;2023-03-23T01:28:54;13.60;99.90
8565;DHT22;4320;51.498;6.556;2023-03-23T01:31:22;13.60;99.90
8565;DHT22;4320;51.498;6.556;2023-03-23T01:33:48;13.60;99.90
8565;DHT22;4320;51.498;6.556;2023-03-23T01:36:27;13.60;99.90
8565;DHT22;4320;51.498;6.556;2023-03-23T01:38:54;13.60;99.90
8565;DHT22;4320;51.498;6.556;2023-03-23T01:41:21;13.60;99.90
8565;DHT22;4320;51.498;6.556;2023-03-23T01:44:08;13.60;99.90
8565;DHT22;4320;51.498;6.556;2023-03-23T01:46:51;13.60;99.90
8565;DHT22;4320;51.498;6.556;2023-03-23T01:49:31;13.60;99.90
8565;DHT22;4320;51.498;6.556;2023-03-23T01:52:05;13.60;99.90
8565;DHT22;4320;51.498;6.556;2023-03-23T01:54:34;13.60;99.90
8565;DHT22;4320;51.498;6.556;2023-03-23T01:57:11;13.60;99.90
8565;DHT22;4320;51.498;6.556;2023-03-23T01:59:39;13.60;99.90
8565;DHT22;4320;51.498;6.556;2023-03-23T02:02:05;13.60;99.90
8565;DHT22;4320;51.498;6.556;2023-03-23T02:04:32;13.60;99.90
8565;DHT22;4320;51.498;6.556;2023-03-23T02:06:59;13.60;99.90
8565;DHT22;4320;51.498;6.556;2023-03-23T02:09:26;13.60;99.90
8565;DHT22;4320;51.498;6.556;2023-03-23T02:11:53;13.60;99.90
8565;DHT22;4320;51.498;6.556;2023-03-23T02:14:20;13.60;99.90
8565;DHT22;4320;51.498;6.556;2023-03-23T02:19:41;13.70;99.90
8565;DHT22;4320;51.498;6.556;2023-03-23T02:22:35;13.70;99.90
8565;DHT22;4320;51.498;6.556;2023-03-23T02:25:22;13.70;99.90
8565;DHT22;4320;51.498;6.556;2023-03-23T02:31:14;13.60;99.90
8565;DHT22;4320;51.498;6.556;2023-03-23T02:33:59;13.60;99.90
8565;DHT22;4320;51.498;6.556;2023-03-23T02:36:37;13.60;99.90
8565;DHT22;4320;51.498;6.556;2023-03-23T02:39:14;13.60;99.90
8565;DHT22;4320;51.498;6.556;2023-03-23T02:41:47;13.60;99.90
8565;DHT22;4320;51.498;6.556;2023-03-23T02:44:15;13.60;99.90
8565;DHT22;4320;51.498;6.556;2023-03-23T02:46:42;13.50;99.90
8565;DHT22;4320;51.498;6.556;2023-03-23T02:49:11;13.60;99.90
8565;DHT22;4320;51.498;6.556;2023-03-23T02:51:38;13.50;99.90
8565;DHT22;4320;51.498;6.556;2023-03-23T02:54:05;13.60;99.90
8565;DHT22;4320;51.498;6.556;2023-03-23T02:56:32;13.50;99.90
8565;DHT22;4320;51.498;6.556;2023-03-23T02:58:59;13.50;99.90
8565;DHT22;4320;51.498;6.556;2023-03-23T03:03:50;13.50;99.90
8565;DHT22;4320;51.498;6.556;2023-03-23T03:07:17;13.50;99.90
8565;DHT22;4320;51.498;6.556;2023-03-23T03:13:11;13.50;99.90
8565;DHT22;4320;51.498;6.556;2023-03-23T03:18:18;13.50;99.90
8565;DHT22;4320;51.498;6.556;2023-03-23T03:20:53;13.50;99.90
8565;DHT22;4320;51.498;6.556;2023-03-23T03:23:22;13.50;99.90
8565;DHT22;4320;51.498;6.556;2023-03-23T03:25:49;13.40;99.90
8565;DHT22;4320;51.498;6.556;2023-03-23T03:28:19;13.50;99.90
8565;DHT22;4320;51.498;6.556;2023-03-23T03:31:06;13.40;99.90
8565;DHT22;4320;51.498;6.556;2023-03-23T03:33:33;13.50;99.90
8565;DHT22;4320;51.498;6.556;2023-03-23T03:36:03;13.50;99.90
8565;DHT22;4320;51.498;6.556;2023-03-23T03:38:44;13.50;99.90
8565;DHT22;4320;51.498;6.556;2023-03-23T03:41:10;13.50;99.90
8565;DHT22;4320;51.498;6.556;2023-03-23T03:43:36;13.50;99.90
8565;DHT22;4320;51.498;6.556;2023-03-23T03:46:02;13.50;99.90
8565;DHT22;4320;51.498;6.556;2023-03-23T03:48:28;13.50;99.90
8565;DHT22;4320;51.498;6.556;2023-03-23T03:50:54;13.50;99.90
8565;DHT22;4320;51.498;6.556;2023-03-23T03:53:25;13.50;99.90
8565;DHT22;4320;51.498;6.556;2023-03-23T03:55:50;13.60;99.90
8565;DHT22;4320;51.498;6.556;2023-03-23T03:58:16;13.60;99.90
8565;DHT22;4320;51.498;6.556;2023-03-23T04:00:42;13.60;99.90
8565;DHT22;4320;51.498;6.556;2023-03-23T04:03:08;13.60;99.90
8565;DHT22;4320;51.498;6.556;2023-03-23T04:05:35;13.60;99.90
8565;DHT22;4320;51.498;6.556;2023-03-23T04:08:02;13.60;99.90
8565;DHT22;4320;51.498;6.556;2023-03-23T04:10:29;13.60;99.90
8565;DHT22;4320;51.498;6.556;2023-03-23T04:12:56;13.60;99.90
8565;DHT22;4320;51.498;6.556;2023-03-23T04:15:22;13.60;99.90
8565;DHT22;4320;51.498;6.556;2023-03-23T04:17:47;13.60;99.90
8565;DHT22;4320;51.498;6.556;2023-03-23T04:20:13;13.60;99.90
8565;DHT22;4320;51.498;6.556;2023-03-23T04:22:47;13.60;99.90
8565;DHT22;4320;51.498;6.556;2023-03-23T04:25:18;13.60;99.90
8565;DHT22;4320;51.498;6.556;2023-03-23T04:27:46;13.60;99.90
8565;DHT22;4320;51.498;6.556;2023-03-23T04:30:19;13.60;99.90
8565;DHT22;4320;51.498;6.556;2023-03-23T04:32:45;13.60;99.90
8565;DHT22;4320;51.498;6.556;2023-03-23T04:35:13;13.60;99.90
8565;DHT22;4320;51.498;6.556;2023-03-23T04:37:40;13.60;99.90
8565;DHT22;4320;51.498;6.556;2023-03-23T04:40:07;13.60;99.90
8565;DHT22;4320;51.498;6.556;2023-03-23T04:42:37;13.60;99.90
8565;DHT22;4320;51.498;6.556;2023-03-23T04:45:03;13.60;99.90
8565;DHT22;4320;51.498;6.556;2023-03-23T04:47:33;13.60;99.90
8565;DHT22;4320;51.498;6.556;2023-03-23T04:49:59;13.60;99.90
8565;DHT22;4320;51.498;6.556;2023-03-23T04:52:26;13.60;99.90
8565;DHT22;4320;51.498;6.556;2023-03-23T04:54:54;13.60;99.90
8565;DHT22;4320;51.498;6.556;2023-03-23T04:57:21;13.60;99.90
8565;DHT22;4320;51.498;6.556;2023-03-23T04:59:47;13.60;99.90
8565;DHT22;4320;51.498;6.556;2023-03-23T05:02:13;13.70;99.90
8565;DHT22;4320;51.498;6.556;2023-03-23T05:04:40;13.60;99.90
8565;DHT22;4320;51.498;6.556;2023-03-23T05:07:07;13.60;99.90
8565;DHT22;4320;51.498;6.556;2023-03-23T05:09:33;13.60;99.90
8565;DHT22;4320;51.498;6.556;2023-03-23T05:12:05;13.60;99.90
8565;DHT22;4320;51.498;6.556;2023-03-23T05:14:31;13.60;99.90
8565;DHT22;4320;51.498;6.556;2023-03-23T05:16:57;13.60;99.90
8565;DHT22;4320;51.498;6.556;2023-03-23T05:19:22;13.60;99.90
8565;DHT22;4320;51.498;6.556;2023-03-23T05:21:48;13.60;99.90
8565;DHT22;4320;51.498;6.556;2023-03-23T05:24:13;13.70;99.90
8565;DHT22;4320;51.498;6.556;2023-03-23T05:26:39;13.70;99.90
8565;DHT22;4320;51.498;6.556;2023-03-23T05:29:05;13.70;99.90
8565;DHT22;4320;51.498;6.556;2023-03-23T05:31:30;13.70;99.90
8565;DHT22;4320;51.498;6.556;2023-03-23T05:33:57;13.70;99.90
8565;DHT22;4320;51.498;6.556;2023-03-23T05:36:23;13.70;99.90
8565;DHT22;4320;51.498;6.556;2023-03-23T05:38:51;13.70;99.90
8565;DHT22;4320;51.498;6.556;2023-03-23T05:41:17;13.70;99.90
8565;DHT22;4320;51.498;6.556;2023-03-23T05:43:43;13.70;99.90
8565;DHT22;4320;51.498;6.556;2023-03-23T05:46:08;13.70;99.90
8565;DHT22;4320;51.498;6.556;2023-03-23T05:48:34;13.60;99.90
8565;DHT22;4320;51.498;6.556;2023-03-23T05:51:00;13.60;99.90
8565;DHT22;4320;51.498;6.556;2023-03-23T05:53:26;13.60;99.90
8565;DHT22;4320;51.498;6.556;2023-03-23T05:55:52;13.60;99.90
8565;DHT22;4320;51.498;6.556;2023-03-23T05:58:18;13.60;99.90
8565;DHT22;4320;51.498;6.556;2023-03-23T06:00:44;13.70;99.90
8565;DHT22;4320;51.498;6.556;2023-03-23T06:03:10;13.70;99.90
8565;DHT22;4320;51.498;6.556;2023-03-23T06:05:42;13.70;99.90
8565;DHT22;4320;51.498;6.556;2023-03-23T06:08:09;13.70;99.90
8565;DHT22;4320;51.498;6.556;2023-03-23T06:10:35;13.70;99.90
8565;DHT22;4320;51.498;6.556;2023-03-23T06:13:02;13.70;99.90
8565;DHT22;4320;51.498;6.556;2023-03-23T06:15:28;13.70;99.90
8565;DHT22;4320;51.498;6.556;2023-03-23T06:17:58;13.70;99.90
8565;DHT22;4320;51.498;6.556;2023-03-23T06:20:24;13.70;99.90
8565;DHT22;4320;51.498;6.556;2023-03-23T06:22:50;13.70;99.90
8565;DHT22;4320;51.498;6.556;2023-03-23T06:25:17;13.70;99.90
8565;DHT22;4320;51.498;6.556;2023-03-23T06:27:43;13.70;99.90
8565;DHT22;4320;51.498;6.556;2023-03-23T06:30:09;13.80;99.90
8565;DHT22;4320;51.498;6.556;2023-03-23T06:32:36;13.80;99.90
8565;DHT22;4320;51.498;6.556;2023-03-23T06:35:03;13.80;99.90
8565;DHT22;4320;51.498;6.556;2023-03-23T06:37:29;13.80;99.90
8565;DHT22;4320;51.498;6.556;2023-03-23T06:39:55;13.80;99.90
8565;DHT22;4320;51.498;6.556;2023-03-23T06:42:23;13.90;99.90
8565;DHT22;4320;51.498;6.556;2023-03-23T06:44:52;13.90;99.90
8565;DHT22;4320;51.498;6.556;2023-03-23T06:47:18;13.90;99.90
8565;DHT22;4320;51.498;6.556;2023-03-23T06:49:43;13.90;99.90
8565;DHT22;4320;51.498;6.556;2023-03-23T06:52:09;13.90;99.90
8565;DHT22;4320;51.498;6.556;2023-03-23T06:54:34;13.90;99.90
8565;DHT22;4320;51.498;6.556;2023-03-23T06:57:00;14.00;99.90
8565;DHT22;4320;51.498;6.556;2023-03-23T06:59:26;14.00;99.90
8565;DHT22;4320;51.498;6.556;2023-03-23T07:01:52;14.00;99.90
8565;DHT22;4320;51.498;6.556;2023-03-23T07:04:18;14.00;99.90
8565;DHT22;4320;51.498;6.556;2023-03-23T07:06:43;14.00;99.90
8565;DHT22;4320;51.498;6.556;2023-03-23T07:09:09;14.00;99.90
8565;DHT22;4320;51.498;6.556;2023-03-23T07:11:34;14.00;99.90
8565;DHT22;4320;51.498;6.556;2023-03-23T07:14:01;14.00;99.90
8565;DHT22;4320;51.498;6.556;2023-03-23T07:16:26;14.10;99.90
8565;DHT22;4320;51.498;6.556;2023-03-23T07:18:53;14.10;99.40
8565;DHT22;4320;51.498;6.556;2023-03-23T07:21:18;14.10;98.70
8565;DHT22;4320;51.498;6.556;2023-03-23T07:23:44;14.10;98.30
8565;DHT22;4320;51.498;6.556;2023-03-23T07:26:12;14.00;98.20
8565;DHT22;4320;51.498;6.556;2023-03-23T07:28:38;14.10;97.50
8565;DHT22;4320;51.498;6.556;2023-03-23T07:31:05;14.10;96.50
8565;DHT22;4320;51.498;6.556;2023-03-23T07:33:32;14.10;96.00
8565;DHT22;4320;51.498;6.556;2023-03-23T07:35:59;14.10;94.90
8565;DHT22;4320;51.498;6.556;2023-03-23T07:38:26;14.10;94.70
8565;DHT22;4320;51.498;6.556;2023-03-23T07:40:53;14.10;94.50
8565;DHT22;4320;51.498;6.556;2023-03-23T07:43:19;14.10;94.50
8565;DHT22;4320;51.498;6.556;2023-03-23T07:45:45;14.10;94.50
8565;DHT22;4320;51.498;6.556;2023-03-23T07:48:11;14.20;93.50
8565;DHT22;4320;51.498;6.556;2023-03-23T07:50:38;14.10;92.10
8565;DHT22;4320;51.498;6.556;2023-03-23T07:53:03;14.10;91.20
8565;DHT22;4320;51.498;6.556;2023-03-23T07:55:29;14.20;91.50
8565;DHT22;4320;51.498;6.556;2023-03-23T07:57:55;14.20;91.50
8565;DHT22;4320;51.498;6.556;2023-03-23T08:00:22;14.10;91.20
8565;DHT22;4320;51.498;6.556;2023-03-23T08:02:56;14.20;90.80
8565;DHT22;4320;51.498;6.556;2023-03-23T08:05:23;14.20;90.10
8565;DHT22;4320;51.498;6.556;2023-03-23T08:07:50;14.20;88.70
8565;DHT22;4320;51.498;6.556;2023-03-23T08:10:17;14.20;88.00
8565;DHT22;4320;51.498;6.556;2023-03-23T08:12:44;14.20;86.60
8565;DHT22;4320;51.498;6.556;2023-03-23T08:15:11;14.20;85.70
8565;DHT22;4320;51.498;6.556;2023-03-23T08:17:39;14.20;85.50
8565;DHT22;4320;51.498;6.556;2023-03-23T08:20:06;14.10;84.00
8565;DHT22;4320;51.498;6.556;2023-03-23T08:22:37;14.10;84.90
8565;DHT22;4320;51.498;6.556;2023-03-23T08:25:04;14.10;82.70
8565;DHT22;4320;51.498;6.556;2023-03-23T08:27:31;14.20;82.70
8565;DHT22;4320;51.498;6.556;2023-03-23T08:29:57;14.20;82.90
8565;DHT22;4320;51.498;6.556;2023-03-23T08:32:22;14.30;83.30
8565;DHT22;4320;51.498;6.556;2023-03-23T08:34:49;14.40;81.10
8565;DHT22;4320;51.498;6.556;2023-03-23T08:37:15;14.40;79.70
8565;DHT22;4320;51.498;6.556;2023-03-23T08:39:42;14.40;78.30
8565;DHT22;4320;51.498;6.556;2023-03-23T08:42:11;14.40;77.70
8565;DHT22;4320;51.498;6.556;2023-03-23T08:44:37;14.40;75.40
8565;DHT22;4320;51.498;6.556;2023-03-23T08:47:03;14.40;75.00
8565;DHT22;4320;51.498;6.556;2023-03-23T08:49:31;14.40;73.50
8565;DHT22;4320;51.498;6.556;2023-03-23T08:51:58;14.40;72.30
8565;DHT22;4320;51.498;6.556;2023-03-23T08:54:25;14.30;71.20
8565;DHT22;4320;51.498;6.556;2023-03-23T08:56:53;14.30;69.70
8565;DHT22;4320;51.498;6.556;2023-03-23T08:59:19;14.20;69.20
8565;DHT22;4320;51.498;6.556;2023-03-23T09:01:45;14.20;68.20
8565;DHT22;4320;51.498;6.556;2023-03-23T09:04:11;14.20;66.30
8565;DHT22;4320;51.498;6.556;2023-03-23T09:06:36;13.60;61.70
8565;DHT22;4320;51.498;6.556;2023-03-23T09:09:03;12.90;75.90
8565;DHT22;4320;51.498;6.556;2023-03-23T09:11:35;12.00;99.90
8565;DHT22;4320;51.498;6.556;2023-03-23T09:14:02;11.50;99.90
8565;DHT22;4320;51.498;6.556;2023-03-23T09:16:28;11.40;99.90
8565;DHT22;4320;51.498;6.556;2023-03-23T09:18:54;11.20;99.90
8565;DHT22;4320;51.498;6.556;2023-03-23T09:21:23;11.20;99.90
8565;DHT22;4320;51.498;6.556;2023-03-23T09:23:49;11.20;99.90
8565;DHT22;4320;51.498;6.556;2023-03-23T09:26:14;11.30;99.90
8565;DHT22;4320;51.498;6.556;2023-03-23T09:28:40;11.40;99.90
8565;DHT22;4320;51.498;6.556;2023-03-23T09:31:06;11.50;99.90
8565;DHT22;4320;51.498;6.556;2023-03-23T09:33:31;11.70;99.90
8565;DHT22;4320;51.498;6.556;2023-03-23T09:36:00;11.80;99.90
8565;DHT22;4320;51.498;6.556;2023-03-23T09:38:28;11.90;99.90
8565;DHT22;4320;51.498;6.556;2023-03-23T09:48:51;12.30;99.90
8565;DHT22;4320;51.498;6.556;2023-03-23T09:53:53;12.40;99.90
8565;DHT22;4320;51.498;6.556;2023-03-23T09:56:20;12.40;99.90
8565;DHT22;4320;51.498;6.556;2023-03-23T09:58:57;12.40;99.90
8565;DHT22;4320;51.498;6.556;2023-03-23T10:03:59;12.40;99.90
8565;DHT22;4320;51.498;6.556;2023-03-23T10:06:27;12.60;99.90
8565;DHT22;4320;51.498;6.556;2023-03-23T10:08:55;12.60;99.90
8565;DHT22;4320;51.498;6.556;2023-03-23T10:14:07;12.70;99.90
8565;DHT22;4320;51.498;6.556;2023-03-23T10:16:38;12.70;99.90
8565;DHT22;4320;51.498;6.556;2023-03-23T10:21:52;12.80;99.90
8565;DHT22;4320;51.498;6.556;2023-03-23T10:24:34;12.90;99.90
8565;DHT22;4320;51.498;6.556;2023-03-23T10:29:58;12.80;99.90
8565;DHT22;4320;51.498;6.556;2023-03-23T10:32:52;12.80;99.90
8565;DHT22;4320;51.498;6.556;2023-03-23T10:35:25;12.80;99.90
8565;DHT22;4320;51.498;6.556;2023-03-23T10:38:01;13.00;99.90
8565;DHT22;4320;51.498;6.556;2023-03-23T10:40:30;12.90;99.90
8565;DHT22;4320;51.498;6.556;2023-03-23T10:42:58;12.90;99.90
8565;DHT22;4320;51.498;6.556;2023-03-23T10:45:29;13.10;99.90
8565;DHT22;4320;51.498;6.556;2023-03-23T10:50:39;13.40;99.90
8565;DHT22;4320;51.498;6.556;2023-03-23T10:53:38;13.40;99.90
8565;DHT22;4320;51.498;6.556;2023-03-23T10:56:05;13.50;99.90
8565;DHT22;4320;51.498;6.556;2023-03-23T10:58:44;13.70;99.90
8565;DHT22;4320;51.498;6.556;2023-03-23T11:01:12;13.70;99.90
8565;DHT22;4320;51.498;6.556;2023-03-23T11:03:47;13.70;99.90
8565;DHT22;4320;51.498;6.556;2023-03-23T11:06:22;13.70;99.90
8565;DHT22;4320;51.498;6.556;2023-03-23T11:08:52;13.60;99.90
8565;DHT22;4320;51.498;6.556;2023-03-23T11:11:28;13.70;99.90
8565;DHT22;4320;51.498;6.556;2023-03-23T11:14:02;13.60;99.90
8565;DHT22;4320;51.498;6.556;2023-03-23T11:16:31;13.60;99.90
8565;DHT22;4320;51.498;6.556;2023-03-23T11:18:59;13.50;99.90
8565;DHT22;4320;51.498;6.556;2023-03-23T11:21:26;13.40;99.90
8565;DHT22;4320;51.498;6.556;2023-03-23T11:23:55;13.40;99.90
8565;DHT22;4320;51.498;6.556;2023-03-23T11:26:28;13.60;99.90
8565;DHT22;4320;51.498;6.556;2023-03-23T11:34:16;13.60;99.90
8565;DHT22;4320;51.498;6.556;2023-03-23T11:36:48;13.70;99.90
8565;DHT22;4320;51.498;6.556;2023-03-23T11:39:26;14.00;99.90
8565;DHT22;4320;51.498;6.556;2023-03-23T11:41:53;14.30;99.90
8565;DHT22;4320;51.498;6.556;2023-03-23T11:44:22;14.80;99.90
8565;DHT22;4320;51.498;6.556;2023-03-23T11:50:16;14.90;99.90
8565;DHT22;4320;51.498;6.556;2023-03-23T11:55:28;14.70;99.90
8565;DHT22;4320;51.498;6.556;2023-03-23T11:58:00;14.70;99.90
8565;DHT22;4320;51.498;6.556;2023-03-23T12:00:25;14.50;99.90
8565;DHT22;4320;51.498;6.556;2023-03-23T12:06:35;14.60;99.90
8565;DHT22;4320;51.498;6.556;2023-03-23T12:26:31;14.40;99.90
8565;DHT22;4320;51.498;6.556;2023-03-23T12:29:25;14.50;99.90
8565;DHT22;4320;51.498;6.556;2023-03-23T12:34:49;14.50;99.90
8565;DHT22;4320;51.498;6.556;2023-03-23T12:48:33;15.30;99.90
8565;DHT22;4320;51.498;6.556;2023-03-23T12:53:52;15.90;99.90
8565;DHT22;4320;51.498;6.556;2023-03-23T12:56:31;16.30;99.90
8565;DHT22;4320;51.498;6.556;2023-03-23T13:02:20;16.70;99.90
8565;DHT22;4320;51.498;6.556;2023-03-23T13:04:46;16.80;99.90
8565;DHT22;4320;51.498;6.556;2023-03-23T13:07:18;17.40;99.90
8565;DHT22;4320;51.498;6.556;2023-03-23T13:09:53;17.50;99.90
8565;DHT22;4320;51.498;6.556;2023-03-23T13:12:21;17.40;99.90
8565;DHT22;4320;51.498;6.556;2023-03-23T13:15:18;17.40;99.90
8565;DHT22;4320;51.498;6.556;2023-03-23T13:20:58;17.60;99.90
8565;DHT22;4320;51.498;6.556;2023-03-23T13:23:31;17.70;99.90
8565;DHT22;4320;51.498;6.556;2023-03-23T13:26:09;17.60;99.90
8565;DHT22;4320;51.498;6.556;2023-03-23T13:36:58;16.70;99.90
8565;DHT22;4320;51.498;6.556;2023-03-23T13:39:36;16.60;99.90
8565;DHT22;4320;51.498;6.556;2023-03-23T13:47:25;16.30;99.90
8565;DHT22;4320;51.498;6.556;2023-03-23T13:50:05;16.50;99.90
8565;DHT22;4320;51.498;6.556;2023-03-23T14:03:10;16.10;99.90
8565;DHT22;4320;51.498;6.556;2023-03-23T14:10:49;16.30;99.90
8565;DHT22;4320;51.498;6.556;2023-03-23T14:13:21;16.30;99.90
8565;DHT22;4320;51.498;6.556;2023-03-23T14:16:00;16.50;99.90
8565;DHT22;4320;51.498;6.556;2023-03-23T14:18:35;16.60;99.90
8565;DHT22;4320;51.498;6.556;2023-03-23T14:21:01;16.70;99.90
8565;DHT22;4320;51.498;6.556;2023-03-23T14:23:27;16.60;99.90
8565;DHT22;4320;51.498;6.556;2023-03-23T14:26:06;16.50;99.90
8565;DHT22;4320;51.498;6.556;2023-03-23T14:28:38;16.50;99.90
8565;DHT22;4320;51.498;6.556;2023-03-23T14:31:04;16.50;99.90
8565;DHT22;4320;51.498;6.556;2023-03-23T14:33:30;16.40;99.90
8565;DHT22;4320;51.498;6.556;2023-03-23T14:35:58;16.50;99.90
8565;DHT22;4320;51.498;6.556;2023-03-23T14:38:25;16.50;99.90
8565;DHT22;4320;51.498;6.556;2023-03-23T14:41:03;16.50;99.90
8565;DHT22;4320;51.498;6.556;2023-03-23T14:43:31;16.40;99.90
8565;DHT22;4320;51.498;6.556;2023-03-23T14:46:02;16.40;99.90
8565;DHT22;4320;51.498;6.556;2023-03-23T14:48:30;16.40;99.90
8565;DHT22;4320;51.498;6.556;2023-03-23T14:50:58;16.40;99.90
8565;DHT22;4320;51.498;6.556;2023-03-23T14:53:28;16.50;99.90
8565;DHT22;4320;51.498;6.556;2023-03-23T14:55:55;16.50;99.90
8565;DHT22;4320;51.498;6.556;2023-03-23T14:58:23;16.50;99.90
8565;DHT22;4320;51.498;6.556;2023-03-23T15:01:09;16.50;99.90
8565;DHT22;4320;51.498;6.556;2023-03-23T15:03:40;16.40;99.90
8565;DHT22;4320;51.498;6.556;2023-03-23T15:06:15;16.40;99.90
8565;DHT22;4320;51.498;6.556;2023-03-23T15:08:41;16.30;99.90
8565;DHT22;4320;51.498;6.556;2023-03-23T15:13:49;16.40;99.90
8565;DHT22;4320;51.498;6.556;2023-03-23T15:16:27;16.40;99.90
8565;DHT22;4320;51.498;6.556;2023-03-23T15:18:59;16.30;99.90
8565;DHT22;4320;51.498;6.556;2023-03-23T15:21:34;16.30;99.90
8565;DHT22;4320;51.498;6.556;2023-03-23T15:24:01;16.30;99.90
8565;DHT22;4320;51.498;6.556;2023-03-23T15:26:41;16.30;99.90
8565;DHT22;4320;51.498;6.556;2023-03-23T15:31:33;16.10;99.90
8565;DHT22;4320;51.498;6.556;2023-03-23T15:34:01;16.20;99.90
8565;DHT22;4320;51.498;6.556;2023-03-23T15:36:32;16.10;99.90
8565;DHT22;4320;51.498;6.556;2023-03-23T15:38:58;16.00;99.90
8565;DHT22;4320;51.498;6.556;2023-03-23T15:41:31;16.00;99.90
8565;DHT22;4320;51.498;6.556;2023-03-23T15:44:08;15.90;99.90
8565;DHT22;4320;51.498;6.556;2023-03-23T15:46:34;15.90;99.90
8565;DHT22;4320;51.498;6.556;2023-03-23T15:51:27;15.90;99.90
8565;DHT22;4320;51.498;6.556;2023-03-23T15:53:55;15.80;99.90
8565;DHT22;4320;51.498;6.556;2023-03-23T15:56:21;15.90;99.90
8565;DHT22;4320;51.498;6.556;2023-03-23T15:58:47;15.90;99.90
8565;DHT22;4320;51.498;6.556;2023-03-23T16:01:17;15.80;99.90
8565;DHT22;4320;51.498;6.556;2023-03-23T16:03:51;15.90;99.90
8565;DHT22;4320;51.498;6.556;2023-03-23T16:06:19;15.80;99.90
8565;DHT22;4320;51.498;6.556;2023-03-23T16:08:45;15.70;99.90
8565;DHT22;4320;51.498;6.556;2023-03-23T16:11:12;15.70;99.90
8565;DHT22;4320;51.498;6.556;2023-03-23T16:13:38;15.70;99.90
8565;DHT22;4320;51.498;6.556;2023-03-23T16:16:06;15.80;99.90
8565;DHT22;4320;51.498;6.556;2023-03-23T16:18:33;15.80;99.90
8565;DHT22;4320;51.498;6.556;2023-03-23T16:20:58;15.80;99.90
8565;DHT22;4320;51.498;6.556;2023-03-23T16:23:25;15.80;99.90
8565;DHT22;4320;51.498;6.556;2023-03-23T16:25:51;15.70;99.90
8565;DHT22;4320;51.498;6.556;2023-03-23T16:28:17;15.70;99.90
8565;DHT22;4320;51.498;6.556;2023-03-23T16:30:43;15.70;99.90
8565;DHT22;4320;51.498;6.556;2023-03-23T16:33:09;15.70;99.90
8565;DHT22;4320;51.498;6.556;2023-03-23T16:35:35;15.60;99.90
8565;DHT22;4320;51.498;6.556;2023-03-23T16:38:01;15.60;99.90
8565;DHT22;4320;51.498;6.556;2023-03-23T16:40:27;15.60;99.90
8565;DHT22;4320;51.498;6.556;2023-03-23T16:42:53;15.70;99.90
8565;DHT22;4320;51.498;6.556;2023-03-23T16:45:19;15.70;99.90
8565;DHT22;4320;51.498;6.556;2023-03-23T16:47:45;15.70;99.90
8565;DHT22;4320;51.498;6.556;2023-03-23T16:50:15;15.70;99.90
8565;DHT22;4320;51.498;6.556;2023-03-23T16:52:43;15.60;99.90
8565;DHT22;4320;51.498;6.556;2023-03-23T16:55:10;15.60;99.90
8565;DHT22;4320;51.498;6.556;2023-03-23T16:57:37;15.60;99.90
8565;DHT22;4320;51.498;6.556;2023-03-23T17:00:05;15.50;99.90
8565;DHT22;4320;51.498;6.556;2023-03-23T17:02:32;15.50;99.90
8565;DHT22;4320;51.498;6.556;2023-03-23T17:04:57;15.50;99.90
8565;DHT22;4320;51.498;6.556;2023-03-23T17:07:23;15.50;99.90
8565;DHT22;4320;51.498;6.556;2023-03-23T17:09:50;15.50;99.90
8565;DHT22;4320;51.498;6.556;2023-03-23T17:12:15;15.50;99.90
8565;DHT22;4320;51.498;6.556;2023-03-23T17:14:41;15.50;99.90
8565;DHT22;4320;51.498;6.556;2023-03-23T17:17:07;15.40;99.90
8565;DHT22;4320;51.498;6.556;2023-03-23T17:19:33;15.40;99.90
8565;DHT22;4320;51.498;6.556;2023-03-23T17:21:58;15.30;99.90
8565;DHT22;4320;51.498;6.556;2023-03-23T17:24:24;15.30;99.90
8565;DHT22;4320;51.498;6.556;2023-03-23T17:26:52;15.30;99.90
8565;DHT22;4320;51.498;6.556;2023-03-23T17:29:18;15.20;99.90
8565;DHT22;4320;51.498;6.556;2023-03-23T17:31:44;15.10;99.90
8565;DHT22;4320;51.498;6.556;2023-03-23T17:34:09;15.10;99.90
8565;DHT22;4320;51.498;6.556;2023-03-23T17:36:35;15.00;99.90
8565;DHT22;4320;51.498;6.556;2023-03-23T17:39:01;15.00;99.90
8565;DHT22;4320;51.498;6.556;2023-03-23T17:41:27;15.00;99.90
8565;DHT22;4320;51.498;6.556;2023-03-23T17:43:52;15.00;99.90
8565;DHT22;4320;51.498;6.556;2023-03-23T17:46:18;15.00;99.90
8565;DHT22;4320;51.498;6.556;2023-03-23T17:48:43;15.00;99.90
8565;DHT22;4320;51.498;6.556;2023-03-23T17:51:09;14.90;99.90
8565;DHT22;4320;51.498;6.556;2023-03-23T17:53:35;14.90;99.90
8565;DHT22;4320;51.498;6.556;2023-03-23T17:56:02;14.90;99.90
8565;DHT22;4320;51.498;6.556;2023-03-23T17:58:28;14.90;99.90
8565;DHT22;4320;51.498;6.556;2023-03-23T18:00:54;14.80;99.90
8565;DHT22;4320;51.498;6.556;2023-03-23T18:03:21;14.80;99.90
8565;DHT22;4320;51.498;6.556;2023-03-23T18:05:47;14.80;99.90
8565;DHT22;4320;51.498;6.556;2023-03-23T18:08:14;14.70;99.90
8565;DHT22;4320;51.498;6.556;2023-03-23T18:10:40;14.70;99.90
8565;DHT22;4320;51.498;6.556;2023-03-23T18:13:06;14.60;99.90
8565;DHT22;4320;51.498;6.556;2023-03-23T18:15:33;14.60;99.90
8565;DHT22;4320;51.498;6.556;2023-03-23T18:18:00;14.60;99.90
8565;DHT22;4320;51.498;6.556;2023-03-23T18:20:28;14.60;99.90
8565;DHT22;4320;51.498;6.556;2023-03-23T18:22:55;14.60;99.90
8565;DHT22;4320;51.498;6.556;2023-03-23T18:25:20;14.70;99.90